createdAt,value
2017-10-03T00:00:02.031Z,14.21
2017-10-03T00:01:02.051Z,14.27
2017-10-03T00:02:16.663Z,14.36
2017-10-03T00:03:16.368Z,14.35
2017-10-03T00:04:02.114Z,14.33
2017-10-03T00:05:01.821Z,14.32
2017-10-03T00:06:02.160Z,14.36
2017-10-03T00:07:02.181Z,14.35
2017-10-03T00:08:02.204Z,14.39
2017-10-03T00:09:01.906Z,14.37
2017-10-03T00:10:01.932Z,14.33
2017-10-03T00:11:02.265Z,14.27
2017-10-03T00:12:02.290Z,14.29
2017-10-03T00:13:02.321Z,14.29
2017-10-03T00:14:02.334Z,14.21
2017-10-03T00:15:02.041Z,14.17
2017-10-03T00:16:02.063Z,14.28
2017-10-03T00:17:16.998Z,14.15
2017-10-03T00:18:02.105Z,14.25
2017-10-03T00:19:02.447Z,14.21
2017-10-03T00:20:02.468Z,14.22
2017-10-03T00:21:02.494Z,14.22
2017-10-03T00:22:02.513Z,14.18
2017-10-03T00:24:02.554Z,14.29
2017-10-03T00:25:02.582Z,14.24
2017-10-03T00:26:02.603Z,14.27
2017-10-03T00:27:02.623Z,14.2
2017-10-03T00:28:02.643Z,14.2
2017-10-03T00:29:02.665Z,14.22
2017-10-03T00:30:02.695Z,14.18
2017-10-03T00:31:02.709Z,14.18
2017-10-03T00:32:02.779Z,14.18
2017-10-03T00:33:02.760Z,14.18
2017-10-03T00:34:17.372Z,14.25
2017-10-03T00:35:02.809Z,14.22
2017-10-03T00:36:17.094Z,14.04
2017-10-03T00:37:02.837Z,14.04
2017-10-03T00:38:17.454Z,14.1
2017-10-03T00:39:02.570Z,14.09
2017-10-03T00:41:02.612Z,14.09
2017-10-03T00:42:02.632Z,14.04
2017-10-03T00:43:02.975Z,14.07
2017-10-03T00:45:03.024Z,14.02
2017-10-03T00:46:03.065Z,14.04
2017-10-03T00:47:03.062Z,14.06
2017-10-03T00:48:03.081Z,14.04
2017-10-03T00:49:03.101Z,14.04
2017-10-03T00:50:17.718Z,14.02
2017-10-03T00:51:02.828Z,14.06
2017-10-03T00:52:02.855Z,14.03
2017-10-03T00:53:17.784Z,13.96
2017-10-03T00:54:03.211Z,13.97
2017-10-03T00:55:03.235Z,13.92
2017-10-03T00:56:03.257Z,13.92
2017-10-03T00:57:03.288Z,13.95
2017-10-03T00:58:03.301Z,13.84
2017-10-03T00:59:03.325Z,14
2017-10-03T01:00:03.030Z,14.02
2017-10-03T01:01:03.367Z,13.96
2017-10-03T01:02:03.391Z,13.97
2017-10-03T01:03:03.095Z,13.96
2017-10-03T01:04:03.433Z,14.03
2017-10-03T01:05:03.454Z,13.96
2017-10-03T01:07:02.861Z,13.99
2017-10-03T01:08:03.519Z,13.95
2017-10-03T01:09:18.134Z,13.92
2017-10-03T01:10:18.157Z,13.92
2017-10-03T01:11:18.177Z,13.88
2017-10-03T01:12:03.606Z,13.89
2017-10-03T01:13:03.630Z,13.81
2017-10-03T01:14:03.669Z,13.91
2017-10-03T01:15:03.356Z,13.88
2017-10-03T01:16:03.698Z,13.88
2017-10-03T01:17:03.720Z,13.75
2017-10-03T01:18:03.738Z,13.81
2017-10-03T01:19:03.441Z,13.75
2017-10-03T01:20:03.832Z,13.77
2017-10-03T01:21:03.488Z,13.81
2017-10-03T01:22:18.101Z,13.78
2017-10-03T01:23:03.848Z,13.81
2017-10-03T01:24:18.462Z,13.73
2017-10-03T01:25:03.575Z,13.81
2017-10-03T01:26:03.911Z,13.78
2017-10-03T01:27:03.937Z,13.77
2017-10-03T01:28:03.978Z,13.77
2017-10-03T01:30:03.683Z,13.73
2017-10-03T01:31:03.707Z,13.6
2017-10-03T01:32:04.046Z,13.67
2017-10-03T01:35:04.116Z,13.64
2017-10-03T01:36:03.810Z,13.67
2017-10-03T01:37:18.746Z,13.6
2017-10-03T01:38:03.858Z,13.62
2017-10-03T01:39:04.198Z,13.63
2017-10-03T01:40:18.813Z,13.69
2017-10-03T01:41:03.928Z,13.6
2017-10-03T01:42:03.944Z,13.64
2017-10-03T01:43:04.288Z,13.6
2017-10-03T01:45:04.329Z,13.62
2017-10-03T01:47:04.389Z,13.75
2017-10-03T01:48:04.391Z,13.63
2017-10-03T01:49:04.416Z,13.6
2017-10-03T01:50:04.440Z,13.62
2017-10-03T01:51:04.139Z,13.67
2017-10-03T01:52:04.510Z,13.59
2017-10-03T01:53:04.502Z,13.54
2017-10-03T01:54:04.522Z,13.6
2017-10-03T01:55:04.595Z,13.64
2017-10-03T01:56:04.568Z,13.67
2017-10-03T01:57:04.592Z,13.55
2017-10-03T01:58:04.614Z,13.55
2017-10-03T01:59:19.220Z,13.6
2017-10-03T02:00:04.656Z,13.55
2017-10-03T02:01:04.671Z,13.51
2017-10-03T02:02:04.695Z,13.55
2017-10-03T02:03:04.718Z,13.6
2017-10-03T02:04:04.420Z,13.54
2017-10-03T02:05:04.758Z,13.51
2017-10-03T02:06:04.781Z,13.55
2017-10-03T02:07:04.805Z,13.6
2017-10-03T02:08:04.823Z,13.51
2017-10-03T02:09:19.449Z,13.52
2017-10-03T02:10:04.867Z,13.59
2017-10-03T02:11:19.164Z,13.59
2017-10-03T02:12:04.919Z,13.52
2017-10-03T02:13:04.930Z,13.54
2017-10-03T02:14:04.965Z,13.49
2017-10-03T02:15:04.977Z,13.54
2017-10-03T02:16:04.996Z,13.55
2017-10-03T02:17:04.703Z,13.48
2017-10-03T02:18:05.043Z,13.46
2017-10-03T02:19:05.063Z,13.44
2017-10-03T02:20:04.764Z,13.45
2017-10-03T02:21:04.791Z,13.45
2017-10-03T02:22:05.124Z,13.33
2017-10-03T02:23:04.511Z,13.48
2017-10-03T02:24:04.854Z,13.38
2017-10-03T02:25:19.785Z,13.38
2017-10-03T02:26:05.215Z,13.36
2017-10-03T02:27:04.913Z,13.38
2017-10-03T02:28:05.254Z,13.49
2017-10-03T02:29:19.870Z,13.44
2017-10-03T02:30:04.981Z,13.45
2017-10-03T02:31:05.323Z,13.44
2017-10-03T02:32:05.027Z,13.36
2017-10-03T02:33:05.363Z,13.36
2017-10-03T02:34:05.071Z,13.46
2017-10-03T02:35:05.089Z,13.46
2017-10-03T02:36:05.430Z,13.46
2017-10-03T02:37:05.450Z,13.42
2017-10-03T02:38:05.153Z,13.51
2017-10-03T02:39:05.503Z,13.41
2017-10-03T02:40:04.877Z,13.39
2017-10-03T02:41:20.129Z,13.39
2017-10-03T02:42:05.242Z,13.32
2017-10-03T02:43:19.855Z,13.33
2017-10-03T02:44:05.282Z,13.39
2017-10-03T02:45:05.626Z,13.36
2017-10-03T02:46:05.334Z,13.39
2017-10-03T02:47:05.672Z,13.39
2017-10-03T02:48:05.693Z,13.38
2017-10-03T02:49:05.715Z,13.33
2017-10-03T02:50:05.094Z,13.38
2017-10-03T02:51:05.438Z,13.33
2017-10-03T02:52:05.463Z,13.29
2017-10-03T02:53:05.800Z,13.29
2017-10-03T02:54:05.828Z,13.36
2017-10-03T02:55:05.527Z,13.32
2017-10-03T02:56:05.862Z,13.29
2017-10-03T02:57:20.475Z,13.29
2017-10-03T02:58:05.927Z,13.33
2017-10-03T02:59:05.923Z,13.28
2017-10-03T03:00:05.948Z,13.32
2017-10-03T03:01:20.559Z,13.41
2017-10-03T03:02:05.986Z,13.42
2017-10-03T03:03:06.009Z,13.39
2017-10-03T03:04:05.735Z,13.38
2017-10-03T03:06:05.762Z,13.38
2017-10-03T03:07:06.096Z,13.29
2017-10-03T03:08:06.126Z,13.22
2017-10-03T03:09:05.821Z,13.26
2017-10-03T03:10:06.170Z,13.36
2017-10-03T03:11:06.183Z,13.2
2017-10-03T03:12:20.480Z,13.19
2017-10-03T03:13:06.225Z,13.28
2017-10-03T03:14:20.843Z,13.3
2017-10-03T03:15:06.270Z,13.33
2017-10-03T03:16:06.299Z,13.3
2017-10-03T03:18:06.329Z,13.3
2017-10-03T03:19:06.358Z,13.32
2017-10-03T03:20:05.742Z,13.26
2017-10-03T03:21:06.084Z,13.2
2017-10-03T03:22:06.420Z,13.23
2017-10-03T03:23:06.444Z,13.23
2017-10-03T03:24:06.147Z,13.22
2017-10-03T03:25:06.483Z,13.23
2017-10-03T03:26:06.523Z,13.19
2017-10-03T03:27:06.525Z,13.23
2017-10-03T03:28:06.549Z,13.19
2017-10-03T03:29:06.580Z,13.25
2017-10-03T03:30:06.597Z,13.23
2017-10-03T03:31:06.617Z,13.26
2017-10-03T03:32:06.636Z,13.2
2017-10-03T03:33:06.659Z,13.15
2017-10-03T03:34:06.683Z,13.17
2017-10-03T03:35:06.700Z,13.14
2017-10-03T03:36:06.721Z,13.17
2017-10-03T03:37:06.744Z,13.22
2017-10-03T03:38:06.815Z,13.17
2017-10-03T03:39:06.787Z,13.15
2017-10-03T03:40:06.810Z,13.17
2017-10-03T03:41:06.510Z,13.2
2017-10-03T03:42:06.851Z,13.12
2017-10-03T03:43:06.924Z,13.15
2017-10-03T03:44:21.484Z,13.17
2017-10-03T03:45:21.510Z,13.23
2017-10-03T03:46:06.620Z,13.2
2017-10-03T03:47:21.552Z,13.12
2017-10-03T03:48:06.980Z,13.12
2017-10-03T03:49:07.002Z,13.15
2017-10-03T03:51:07.051Z,13.05
2017-10-03T03:52:07.068Z,13.04
2017-10-03T03:53:06.451Z,13.11
2017-10-03T03:55:06.494Z,13
2017-10-03T03:56:06.517Z,13.08
2017-10-03T03:57:07.176Z,13.08
2017-10-03T03:58:06.882Z,13.04
2017-10-03T03:59:07.221Z,13.04
2017-10-03T04:00:21.830Z,13.07
2017-10-03T04:01:06.943Z,12.96
2017-10-03T04:03:07.302Z,12.89
2017-10-03T04:04:07.334Z,12.92
2017-10-03T04:05:07.344Z,12.87
2017-10-03T04:06:07.368Z,12.9
2017-10-03T04:07:07.391Z,12.9
2017-10-03T04:08:07.410Z,12.89
2017-10-03T04:09:07.447Z,12.85
2017-10-03T04:10:07.134Z,12.85
2017-10-03T04:11:07.154Z,12.87
2017-10-03T04:12:07.184Z,12.85
2017-10-03T04:13:07.200Z,12.9
2017-10-03T04:14:07.221Z,12.83
2017-10-03T04:16:22.174Z,12.86
2017-10-03T04:17:07.286Z,12.83
2017-10-03T04:18:07.626Z,12.82
2017-10-03T04:19:07.326Z,12.78
2017-10-03T04:20:22.260Z,12.89
2017-10-03T04:21:07.689Z,12.87
2017-10-03T04:23:07.738Z,12.78
2017-10-03T04:24:07.750Z,12.85
2017-10-03T04:25:07.779Z,12.82
2017-10-03T04:26:07.479Z,12.85
2017-10-03T04:27:07.499Z,12.78
2017-10-03T04:28:07.842Z,12.79
2017-10-03T04:29:07.867Z,12.85
2017-10-03T04:30:07.248Z,12.82
2017-10-03T04:31:07.927Z,12.78
2017-10-03T04:32:22.197Z,12.74
2017-10-03T04:33:07.950Z,12.78
2017-10-03T04:34:07.967Z,12.71
2017-10-03T04:35:07.991Z,12.83
2017-10-03T04:36:07.691Z,12.74
2017-10-03T04:38:08.054Z,12.74
2017-10-03T04:39:07.761Z,12.75
2017-10-03T04:40:07.460Z,12.85
2017-10-03T04:41:07.482Z,12.86
2017-10-03T04:42:08.139Z,12.77
2017-10-03T04:43:08.161Z,12.86
2017-10-03T04:44:08.181Z,12.82
2017-10-03T04:45:07.896Z,12.85
2017-10-03T04:46:07.590Z,12.85
2017-10-03T04:47:22.521Z,12.78
2017-10-03T04:48:22.863Z,12.82
2017-10-03T04:49:08.291Z,12.79
2017-10-03T04:50:08.314Z,12.79
2017-10-03T04:52:08.360Z,12.75
2017-10-03T04:53:08.374Z,12.86
2017-10-03T04:54:08.399Z,12.89
2017-10-03T04:56:08.122Z,12.85
2017-10-03T04:57:08.465Z,12.89
2017-10-03T04:58:08.488Z,12.85
2017-10-03T04:59:08.505Z,12.79
2017-10-03T05:00:08.528Z,12.78
2017-10-03T05:01:08.549Z,12.79
2017-10-03T05:02:08.565Z,12.74
2017-10-03T05:03:08.589Z,12.74
2017-10-03T05:04:08.292Z,12.83
2017-10-03T05:05:22.906Z,12.77
2017-10-03T05:06:08.653Z,12.78
2017-10-03T05:07:08.362Z,12.68
2017-10-03T05:08:08.698Z,12.74
2017-10-03T05:09:08.715Z,12.79
2017-10-03T05:10:08.421Z,12.9
2017-10-03T05:11:08.444Z,12.86
2017-10-03T05:12:08.781Z,12.89
2017-10-03T05:13:08.484Z,12.82
2017-10-03T05:14:08.509Z,12.92
2017-10-03T05:15:08.849Z,12.82
2017-10-03T05:16:08.551Z,12.83
2017-10-03T05:17:08.572Z,12.87
2017-10-03T05:18:08.602Z,12.83
2017-10-03T05:19:23.203Z,12.87
2017-10-03T05:20:08.957Z,12.82
2017-10-03T05:21:08.656Z,12.89
2017-10-03T05:22:08.998Z,12.87
2017-10-03T05:23:08.697Z,12.86
2017-10-03T05:24:09.084Z,12.86
2017-10-03T05:25:08.745Z,12.93
2017-10-03T05:26:08.767Z,12.9
2017-10-03T05:27:08.466Z,12.93
2017-10-03T05:28:08.811Z,12.96
2017-10-03T05:29:08.509Z,12.95
2017-10-03T05:30:08.855Z,12.93
2017-10-03T05:31:08.555Z,12.89
2017-10-03T05:32:08.573Z,13.08
2017-10-03T05:33:09.232Z,13.07
2017-10-03T05:34:08.934Z,13.05
2017-10-03T05:35:23.873Z,13.01
2017-10-03T05:36:08.980Z,13.03
2017-10-03T05:37:09.317Z,13.08
2017-10-03T05:38:09.340Z,13.03
2017-10-03T05:39:09.045Z,13.15
2017-10-03T05:40:09.380Z,13.25
2017-10-03T05:41:09.413Z,13.22
2017-10-03T05:42:09.156Z,13.15
2017-10-03T05:43:08.813Z,13.23
2017-10-03T05:44:09.468Z,13.19
2017-10-03T05:45:09.169Z,13.19
2017-10-03T05:46:09.194Z,13.23
2017-10-03T05:47:09.217Z,13.1
2017-10-03T05:48:09.237Z,13.17
2017-10-03T05:49:09.577Z,13.15
2017-10-03T05:50:09.602Z,13.14
2017-10-03T05:51:24.207Z,13.19
2017-10-03T05:52:09.321Z,13.19
2017-10-03T05:53:09.660Z,13.19
2017-10-03T05:54:09.687Z,13.2
2017-10-03T05:55:09.386Z,13.23
2017-10-03T05:56:09.724Z,13.22
2017-10-03T05:57:09.429Z,13.2
2017-10-03T05:58:09.451Z,13.2
2017-10-03T05:59:09.472Z,13.29
2017-10-03T06:00:09.811Z,13.38
2017-10-03T06:01:09.840Z,13.38
2017-10-03T06:02:09.535Z,13.28
2017-10-03T06:03:09.875Z,13.32
2017-10-03T06:04:09.904Z,13.3
2017-10-03T06:05:09.918Z,13.36
2017-10-03T06:06:09.947Z,13.33
2017-10-03T06:07:24.551Z,13.22
2017-10-03T06:08:09.670Z,13.28
2017-10-03T06:09:10.010Z,13.29
2017-10-03T06:10:10.075Z,13.33
2017-10-03T06:11:10.048Z,13.29
2017-10-03T06:12:09.751Z,13.41
2017-10-03T06:13:10.090Z,13.33
2017-10-03T06:14:10.115Z,13.3
2017-10-03T06:15:10.140Z,13.36
2017-10-03T06:16:09.839Z,13.42
2017-10-03T06:17:09.860Z,13.36
2017-10-03T06:18:10.198Z,13.48
2017-10-03T06:19:10.224Z,13.51
2017-10-03T06:20:09.975Z,13.46
2017-10-03T06:21:10.268Z,13.46
2017-10-03T06:22:24.560Z,13.51
2017-10-03T06:23:10.307Z,13.48
2017-10-03T06:24:10.330Z,13.52
2017-10-03T06:25:24.945Z,13.57
2017-10-03T06:26:10.373Z,13.49
2017-10-03T06:27:10.396Z,13.48
2017-10-03T06:28:10.416Z,13.54
2017-10-03T06:29:10.437Z,13.46
2017-10-03T06:30:10.460Z,13.55
2017-10-03T06:31:10.489Z,13.63
2017-10-03T06:32:10.183Z,13.52
2017-10-03T06:33:10.526Z,13.59
2017-10-03T06:34:10.552Z,13.62
2017-10-03T06:35:10.249Z,13.64
2017-10-03T06:36:09.955Z,13.73
2017-10-03T06:37:10.294Z,13.6
2017-10-03T06:38:10.316Z,13.64
2017-10-03T06:39:10.658Z,13.69
2017-10-03T06:40:10.676Z,13.69
2017-10-03T06:41:10.699Z,13.7
2017-10-03T06:42:10.720Z,13.7
2017-10-03T06:44:10.130Z,13.78
2017-10-03T06:45:10.470Z,13.78
2017-10-03T06:46:10.493Z,13.75
2017-10-03T06:47:10.834Z,13.7
2017-10-03T06:49:10.240Z,13.62
2017-10-03T06:50:10.896Z,13.6
2017-10-03T06:51:10.923Z,13.62
2017-10-03T06:52:10.305Z,13.62
2017-10-03T06:53:10.961Z,13.64
2017-10-03T06:54:25.575Z,13.63
2017-10-03T06:55:10.688Z,13.62
2017-10-03T06:56:25.303Z,13.6
2017-10-03T06:57:10.782Z,13.66
2017-10-03T06:58:10.749Z,13.69
2017-10-03T07:00:11.113Z,13.69
2017-10-03T07:01:11.181Z,13.7
2017-10-03T07:02:10.844Z,13.84
2017-10-03T07:03:11.181Z,13.77
2017-10-03T07:04:10.888Z,13.79
2017-10-03T07:05:10.908Z,13.73
2017-10-03T07:06:10.930Z,13.78
2017-10-03T07:07:10.635Z,13.75
2017-10-03T07:08:11.296Z,13.62
2017-10-03T07:09:11.316Z,13.7
2017-10-03T07:10:25.929Z,13.66
2017-10-03T07:11:11.359Z,13.66
2017-10-03T07:12:11.064Z,13.75
2017-10-03T07:13:11.404Z,13.89
2017-10-03T07:14:11.105Z,13.95
2017-10-03T07:15:11.127Z,13.88
2017-10-03T07:16:11.469Z,13.92
2017-10-03T07:17:11.174Z,13.95
2017-10-03T07:18:11.199Z,14.06
2017-10-03T07:19:11.538Z,14.02
2017-10-03T07:20:11.240Z,14.1
2017-10-03T07:21:11.584Z,14.14
2017-10-03T07:23:11.304Z,14.2
2017-10-03T07:24:11.336Z,14.4
2017-10-03T07:25:11.668Z,14.4
2017-10-03T07:26:26.280Z,14.37
2017-10-03T07:27:11.716Z,14.36
2017-10-03T07:28:11.741Z,14.4
2017-10-03T07:29:11.440Z,14.42
2017-10-03T07:30:11.462Z,14.29
2017-10-03T07:31:26.394Z,14.28
2017-10-03T07:33:26.436Z,14.43
2017-10-03T07:34:11.878Z,14.36
2017-10-03T07:36:11.916Z,14.42
2017-10-03T07:37:11.636Z,14.4
2017-10-03T07:38:11.324Z,14.42
2017-10-03T07:39:11.979Z,14.43
2017-10-03T07:40:11.685Z,14.37
2017-10-03T07:41:11.708Z,14.4
2017-10-03T07:42:26.640Z,14.51
2017-10-03T07:43:11.434Z,14.5
2017-10-03T07:44:12.097Z,14.54
2017-10-03T07:45:12.115Z,14.4
2017-10-03T07:46:11.823Z,14.5
2017-10-03T07:47:11.525Z,14.45
2017-10-03T07:48:12.189Z,14.54
2017-10-03T07:49:12.202Z,14.5
2017-10-03T07:50:11.911Z,14.6
2017-10-03T07:51:12.252Z,14.52
2017-10-03T07:52:11.955Z,14.55
2017-10-03T07:53:12.294Z,14.51
2017-10-03T07:54:11.997Z,14.51
2017-10-03T07:55:12.024Z,14.58
2017-10-03T07:56:12.044Z,14.52
2017-10-03T07:57:26.979Z,14.57
2017-10-03T07:58:12.408Z,14.54
2017-10-03T07:59:12.428Z,14.64
2017-10-03T08:00:12.461Z,14.72
2017-10-03T08:01:12.478Z,14.89
2017-10-03T08:02:12.498Z,14.86
2017-10-03T08:03:12.526Z,14.83
2017-10-03T08:04:12.542Z,14.84
2017-10-03T08:05:12.568Z,14.89
2017-10-03T08:06:12.269Z,14.8
2017-10-03T08:07:12.617Z,14.77
2017-10-03T08:08:12.315Z,14.65
2017-10-03T08:09:12.657Z,14.68
2017-10-03T08:10:12.361Z,14.68
2017-10-03T08:11:12.384Z,14.51
2017-10-03T08:12:12.724Z,14.69
2017-10-03T08:13:12.433Z,14.75
2017-10-03T08:14:12.452Z,14.73
2017-10-03T08:15:12.524Z,14.81
2017-10-03T08:16:12.500Z,14.78
2017-10-03T08:17:12.837Z,14.8
2017-10-03T08:18:12.861Z,14.65
2017-10-03T08:21:12.930Z,14.72
2017-10-03T08:22:12.631Z,14.62
2017-10-03T08:23:12.972Z,14.65
2017-10-03T08:24:12.997Z,14.69
2017-10-03T08:25:13.020Z,14.65
2017-10-03T08:26:13.042Z,14.7
2017-10-03T08:27:12.745Z,14.7
2017-10-03T08:28:13.087Z,14.73
2017-10-03T08:29:27.701Z,14.65
2017-10-03T08:30:13.128Z,14.81
2017-10-03T08:31:27.747Z,15.01
2017-10-03T08:33:13.198Z,15.1
2017-10-03T08:34:13.231Z,15.17
2017-10-03T08:36:13.263Z,15.32
2017-10-03T08:37:12.972Z,15.29
2017-10-03T08:38:12.995Z,15.38
2017-10-03T08:40:13.040Z,15.44
2017-10-03T08:41:13.381Z,15.57
2017-10-03T08:42:13.412Z,15.65
2017-10-03T08:43:13.430Z,15.67
2017-10-03T08:44:13.132Z,15.54
2017-10-03T08:45:28.071Z,15.72
2017-10-03T08:46:13.492Z,15.68
2017-10-03T08:47:13.519Z,15.84
2017-10-03T08:49:28.157Z,15.84
2017-10-03T08:50:13.583Z,15.9
2017-10-03T08:51:13.609Z,15.84
2017-10-03T08:52:13.663Z,15.76
2017-10-03T08:53:13.341Z,15.8
2017-10-03T08:54:13.684Z,15.75
2017-10-03T08:55:13.383Z,15.75
2017-10-03T08:56:13.730Z,15.78
2017-10-03T08:57:13.754Z,15.83
2017-10-03T08:58:13.768Z,15.75
2017-10-03T08:59:13.795Z,15.76
2017-10-03T09:00:13.822Z,15.84
2017-10-03T09:01:28.442Z,15.86
2017-10-03T09:02:13.863Z,15.89
2017-10-03T09:03:13.890Z,15.93
2017-10-03T09:04:13.907Z,15.94
2017-10-03T09:05:28.526Z,16.05
2017-10-03T09:06:13.956Z,16.17
2017-10-03T09:07:13.990Z,16.02
2017-10-03T09:08:13.690Z,16
2017-10-03T09:09:13.707Z,15.96
2017-10-03T09:11:14.073Z,16.05
2017-10-03T09:12:14.098Z,15.86
2017-10-03T09:13:14.120Z,15.89
2017-10-03T09:14:14.139Z,15.92
2017-10-03T09:15:14.165Z,15.9
2017-10-03T09:16:13.871Z,16.08
2017-10-03T09:17:28.804Z,16.17
2017-10-03T09:18:13.918Z,16.34
2017-10-03T09:19:14.308Z,16.31
2017-10-03T09:20:13.964Z,16.31
2017-10-03T09:21:14.306Z,16.45
2017-10-03T09:23:14.347Z,16.07
2017-10-03T09:24:14.369Z,16.21
2017-10-03T09:25:14.407Z,16.27
2017-10-03T09:26:14.101Z,16.35
2017-10-03T09:27:14.449Z,16.3
2017-10-03T09:28:14.467Z,16.48
2017-10-03T09:29:14.173Z,16.58
2017-10-03T09:30:14.514Z,16.67
2017-10-03T09:31:14.540Z,16.75
2017-10-03T09:32:29.153Z,16.67
2017-10-03T09:33:14.266Z,16.56
2017-10-03T09:34:28.882Z,16.61
2017-10-03T09:35:14.312Z,16.57
2017-10-03T09:36:29.246Z,16.52
2017-10-03T09:37:14.707Z,16.46
2017-10-03T09:38:14.067Z,16.56
2017-10-03T09:40:14.749Z,16.53
2017-10-03T09:41:14.771Z,16.57
2017-10-03T09:42:14.800Z,16.64
2017-10-03T09:43:14.816Z,16.64
2017-10-03T09:44:14.525Z,16.83
2017-10-03T09:45:14.868Z,16.89
2017-10-03T09:46:14.890Z,16.94
2017-10-03T09:47:14.913Z,17.03
2017-10-03T09:48:14.939Z,16.78
2017-10-03T09:49:14.959Z,16.83
2017-10-03T09:50:14.984Z,16.7
2017-10-03T09:51:14.369Z,16.83
2017-10-03T09:52:29.623Z,16.88
2017-10-03T09:53:15.056Z,16.89
2017-10-03T09:54:15.082Z,17.08
2017-10-03T09:56:15.122Z,16.93
2017-10-03T09:57:15.148Z,16.97
2017-10-03T09:58:15.172Z,17.01
2017-10-03T09:59:14.882Z,17.04
2017-10-03T10:00:14.899Z,17.07
2017-10-03T10:01:14.930Z,16.98
2017-10-03T10:02:14.947Z,17.04
2017-10-03T10:03:14.973Z,17.01
2017-10-03T10:04:29.906Z,16.94
2017-10-03T10:05:15.020Z,17.03
2017-10-03T10:06:29.953Z,17
2017-10-03T10:07:15.075Z,17.08
2017-10-03T10:08:15.091Z,17.15
2017-10-03T10:09:15.431Z,17.19
2017-10-03T10:10:15.453Z,17.25
2017-10-03T10:11:15.481Z,17
2017-10-03T10:12:15.558Z,16.97
2017-10-03T10:13:15.532Z,16.81
2017-10-03T10:14:15.553Z,16.76
2017-10-03T10:15:15.257Z,16.86
2017-10-03T10:16:15.595Z,16.86
2017-10-03T10:17:15.303Z,16.94
2017-10-03T10:18:15.645Z,16.83
2017-10-03T10:19:15.349Z,16.61
2017-10-03T10:20:30.283Z,16.58
2017-10-03T10:21:15.716Z,16.7
2017-10-03T10:22:15.737Z,16.7
2017-10-03T10:23:15.759Z,16.57
2017-10-03T10:24:15.816Z,16.56
2017-10-03T10:25:30.402Z,16.53
2017-10-03T10:26:15.833Z,16.35
2017-10-03T10:27:15.861Z,16.34
2017-10-03T10:28:15.879Z,16.39
2017-10-03T10:29:15.621Z,16.5
2017-10-03T10:30:15.291Z,16.5
2017-10-03T10:31:15.951Z,16.43
2017-10-03T10:32:15.974Z,16.34
2017-10-03T10:33:16.002Z,16.35
2017-10-03T10:34:16.023Z,16.3
2017-10-03T10:35:15.725Z,16.27
2017-10-03T10:36:30.659Z,16.25
2017-10-03T10:37:16.095Z,16.27
2017-10-03T10:38:16.112Z,16.25
2017-10-03T10:39:30.760Z,16.28
2017-10-03T10:40:30.752Z,16.31
2017-10-03T10:42:16.210Z,16.28
2017-10-03T10:43:16.230Z,16.34
2017-10-03T10:44:16.258Z,16.27
2017-10-03T10:45:16.277Z,16.34
2017-10-03T10:46:15.667Z,16.31
2017-10-03T10:47:15.690Z,16.31
2017-10-03T10:48:16.033Z,16.53
2017-10-03T10:49:16.055Z,16.67
2017-10-03T10:50:16.397Z,16.82
2017-10-03T10:51:31.021Z,17.03
2017-10-03T10:52:31.035Z,17.23
2017-10-03T10:53:16.466Z,17.26
2017-10-03T10:54:30.764Z,17.46
2017-10-03T10:56:16.219Z,17.51
2017-10-03T10:57:16.242Z,17.55
2017-10-03T10:58:16.263Z,17.52
2017-10-03T10:59:16.314Z,17.23
2017-10-03T11:00:16.311Z,17.33
2017-10-03T11:01:16.656Z,17.18
2017-10-03T11:02:16.676Z,17.14
2017-10-03T11:04:16.727Z,17.06
2017-10-03T11:05:16.430Z,17.03
2017-10-03T11:06:16.773Z,17.14
2017-10-03T11:07:31.072Z,17.19
2017-10-03T11:08:16.552Z,17.31
2017-10-03T11:09:31.119Z,17.33
2017-10-03T11:10:16.599Z,17.43
2017-10-03T11:11:16.890Z,17.52
2017-10-03T11:13:16.937Z,17.64
2017-10-03T11:14:16.958Z,17.79
2017-10-03T11:15:16.669Z,17.77
2017-10-03T11:16:16.689Z,17.74
2017-10-03T11:17:17.084Z,17.81
2017-10-03T11:18:16.739Z,17.79
2017-10-03T11:19:16.765Z,17.79
2017-10-03T11:20:16.469Z,17.72
2017-10-03T11:21:17.134Z,17.63
2017-10-03T11:22:17.152Z,17.7
2017-10-03T11:23:16.858Z,17.72
2017-10-03T11:24:17.200Z,17.71
2017-10-03T11:25:17.225Z,17.59
2017-10-03T11:26:17.251Z,17.68
2017-10-03T11:27:17.280Z,17.56
2017-10-03T11:28:31.886Z,17.58
2017-10-03T11:29:17.324Z,17.59
2017-10-03T11:30:17.342Z,17.63
2017-10-03T11:31:17.369Z,17.43
2017-10-03T11:32:17.391Z,17.54
2017-10-03T11:33:17.417Z,17.38
2017-10-03T11:34:17.173Z,17.31
2017-10-03T11:35:17.142Z,17.38
2017-10-03T11:36:17.489Z,17.46
2017-10-03T11:37:17.509Z,17.26
2017-10-03T11:38:17.215Z,17.25
2017-10-03T11:39:32.148Z,17.19
2017-10-03T11:40:17.272Z,17.15
2017-10-03T11:41:17.288Z,17.06
2017-10-03T11:43:32.243Z,16.67
2017-10-03T11:44:17.677Z,16.53
2017-10-03T11:45:17.708Z,16.58
2017-10-03T11:46:17.725Z,16.66
2017-10-03T11:47:17.797Z,16.56
2017-10-03T11:48:17.769Z,16.49
2017-10-03T11:49:17.794Z,16.58
2017-10-03T11:50:17.816Z,16.63
2017-10-03T11:51:17.844Z,16.56
2017-10-03T11:52:17.546Z,16.64
2017-10-03T11:53:17.885Z,16.58
2017-10-03T11:54:17.911Z,16.53
2017-10-03T11:55:32.530Z,16.46
2017-10-03T11:56:17.958Z,16.43
2017-10-03T11:57:17.980Z,16.24
2017-10-03T11:58:18.028Z,16.15
2017-10-03T11:59:18.026Z,16.11
2017-10-03T12:00:32.642Z,16.07
2017-10-03T12:02:17.777Z,16.11
2017-10-03T12:03:18.125Z,16.11
2017-10-03T12:04:18.151Z,16.11
2017-10-03T12:05:17.847Z,16.25
2017-10-03T12:06:18.192Z,16.33
2017-10-03T12:07:18.214Z,16.45
2017-10-03T12:08:18.246Z,16.57
2017-10-03T12:09:17.946Z,16.52
2017-10-03T12:10:18.284Z,16.71
2017-10-03T12:11:32.905Z,16.85
2017-10-03T12:12:18.328Z,17.06
2017-10-03T12:13:18.353Z,16.78
2017-10-03T12:14:32.972Z,16.81
2017-10-03T12:15:32.994Z,16.83
2017-10-03T12:16:18.425Z,16.76
2017-10-03T12:18:18.478Z,17.04
2017-10-03T12:19:18.496Z,17.16
2017-10-03T12:20:18.521Z,17.19
2017-10-03T12:21:18.538Z,17.44
2017-10-03T12:22:18.248Z,17.59
2017-10-03T12:23:18.590Z,17.71
2017-10-03T12:24:18.615Z,18.07
2017-10-03T12:25:18.321Z,18.23
2017-10-03T12:26:33.257Z,18.39
2017-10-03T12:27:33.274Z,18.55
2017-10-03T12:28:32.982Z,18.51
2017-10-03T12:29:18.728Z,18.51
2017-10-03T12:30:18.756Z,18.51
2017-10-03T12:31:18.782Z,18.41
2017-10-03T12:32:18.803Z,18.42
2017-10-03T12:34:18.847Z,18.63
2017-10-03T12:36:18.582Z,18.41
2017-10-03T12:37:18.921Z,18.51
2017-10-03T12:38:18.948Z,18.39
2017-10-03T12:39:18.650Z,18.5
2017-10-03T12:40:18.996Z,18.51
2017-10-03T12:41:18.698Z,18.37
2017-10-03T12:42:33.689Z,18.47
2017-10-03T12:43:19.066Z,18.44
2017-10-03T12:44:19.123Z,18.5
2017-10-03T12:46:19.140Z,18.35
2017-10-03T12:47:19.162Z,18.3
2017-10-03T12:48:18.869Z,18.44
2017-10-03T12:49:19.230Z,18.48
2017-10-03T12:50:19.243Z,18.7
2017-10-03T12:51:18.940Z,18.67
2017-10-03T12:52:19.294Z,18.63
2017-10-03T12:53:19.307Z,18.52
2017-10-03T12:54:19.335Z,18.37
2017-10-03T12:55:19.034Z,18.32
2017-10-03T12:56:19.377Z,18.25
2017-10-03T12:57:19.404Z,17.97
2017-10-03T12:58:19.477Z,18.07
2017-10-03T12:59:19.132Z,17.89
2017-10-03T13:00:33.749Z,17.89
2017-10-03T13:01:19.182Z,17.82
2017-10-03T13:02:19.207Z,17.77
2017-10-03T13:03:19.229Z,17.48
2017-10-03T13:04:19.254Z,17.16
2017-10-03T13:05:19.277Z,17.14
2017-10-03T13:06:19.665Z,17.07
2017-10-03T13:07:19.641Z,16.94
2017-10-03T13:08:19.665Z,16.85
2017-10-03T13:09:19.689Z,16.82
2017-10-03T13:10:19.709Z,16.79
2017-10-03T13:11:19.742Z,16.68
2017-10-03T13:12:19.763Z,16.66
2017-10-03T13:13:19.476Z,16.5
2017-10-03T13:14:34.397Z,15.96
2017-10-03T13:15:19.834Z,15.9
2017-10-03T13:16:19.862Z,15.82
2017-10-03T13:17:19.558Z,15.56
2017-10-03T13:18:19.900Z,15.53
2017-10-03T13:19:19.922Z,15.32
2017-10-03T13:20:19.945Z,15.31
2017-10-03T13:21:19.652Z,15.25
2017-10-03T13:22:19.674Z,15.14
2017-10-03T13:23:20.021Z,15.02
2017-10-03T13:24:20.040Z,14.92
2017-10-03T13:25:20.065Z,15.09
2017-10-03T13:26:20.088Z,15.09
2017-10-03T13:27:20.105Z,15.09
2017-10-03T13:28:20.132Z,15.13
2017-10-03T13:29:19.836Z,15.28
2017-10-03T13:30:34.771Z,15.46
2017-10-03T13:31:19.884Z,15.43
2017-10-03T13:32:34.497Z,15.44
2017-10-03T13:33:20.252Z,15.43
2017-10-03T13:34:20.273Z,15.47
2017-10-03T13:35:20.314Z,15.59
2017-10-03T13:36:20.320Z,15.54
2017-10-03T13:37:20.022Z,15.56
2017-10-03T13:39:20.389Z,15.56
2017-10-03T13:40:20.413Z,15.47
2017-10-03T13:41:20.430Z,15.47